• Join FlightAware (Why Join?)
  • Login
  • US Flag 
11:20AM EDT


 

Airport Tracker/Info


-or-


 

Live Flight TrackerFlight Track Log ✈ AM318 ✈ 13-May-2013 ✈ YSWH - YMEN / MEB

Flight Track Log - Related Links

Times and Time Zones

All times are in EDT time to prevent confusion due to time zone crossing. See the AM318 flight status page for this flight to view local times or setup timezone preferences in your user account.

Time Position Orientation Groundspeed Altitude Reporting Facility
EDT Latitude Longitude Course Direction KTS MPH feet Rate Location/Type
03:14PM -35.4082 143.5169 149° Southeast 170 196 3,400  Level Aus ATC (RADAR)
03:15PM -35.4581 143.5531 149° Southeast 199 229 5,200 1,620 Climbing Aus ATC (RADAR)
03:16PM -35.5088 143.5976 144° Southeast 211 243 6,900 1,740 Climbing Aus ATC (RADAR)
03:17PM -35.5593 143.6434 144° Southeast 213 245 9,000 1,800 Climbing Aus ATC (RADAR)
03:18PM -35.6096 143.6833 147° Southeast 220 253 10,700 1,740 Climbing Aus ATC (RADAR)
03:20PM -35.7060 143.7460 152° Southeast 222 255 14,100 1,740 Climbing FlightAware
03:21PM -35.7301 143.7609 152° Southeast 231 266 14,700 1,500 Climbing Aus ATC (RADAR)
03:21PM -35.7450 143.7710 152° Southeast 237 273 15,100 1,560 Climbing FlightAware
03:22PM -35.7886 143.7983 152° Southeast 237 273 16,300 1,560 Climbing Aus ATC (RADAR)
03:22PM -35.7870 143.7990 152° Southeast 238 274 16,300 1,560 Level FlightAware
03:22PM -35.8280 143.8260 152° Southeast 242 278 17,400 1,620 Climbing FlightAware
03:23PM -35.8524 143.8409 152° Southeast 243 280 18,000 1,440 Climbing Aus ATC (RADAR)
03:23PM -35.8720 143.8560 152° Southeast 241 277 18,500 1,080 Climbing FlightAware
03:24PM -35.9040 143.8760 152° Southeast 271 312 19,000 780 Climbing FlightAware
03:24PM -35.9151 143.8818 152° Southeast 263 303 19,000  Level Aus ATC (RADAR)
03:25PM -35.9967 143.9364 152° Southeast 315 362 19,000  Level Aus ATC (RADAR)
03:25PM -35.9990 143.9390 152° Southeast 319 367 19,000  Level FlightAware
03:26PM -36.0846 143.9949 152° Southeast 332 382 19,000  Level Aus ATC (RADAR)
03:26PM -36.1000 144.0070 152° Southeast 329 379 19,000  Level FlightAware
03:27PM -36.1738 144.0543 152° Southeast 337 388 19,000  Level Aus ATC (RADAR)
03:27PM -36.2040 144.0760 152° Southeast 332 382 19,000  Level FlightAware
03:28PM -36.2979 144.1376 152° Southeast 338 389 19,000  Level Aus ATC (RADAR)
03:29PM -36.3000 144.1410 152° Southeast 333 383 19,000  Level FlightAware
03:30PM -36.3876 144.1976 152° Southeast 336 387 19,000  Level Aus ATC (RADAR)
03:30PM -36.4040 144.2110 152° Southeast 329 379 19,000  Level FlightAware
03:31PM -36.4761 144.2578 152° Southeast 333 383 19,000  Level Aus ATC (RADAR)
03:31PM -36.4930 144.2710 152° Southeast 334 384 19,000  Level FlightAware
03:32PM -36.5640 144.3181 152° Southeast 331 381 19,000  Level Aus ATC (RADAR)
03:32PM -36.5940 144.3390 152° Southeast 333 383 19,000  Level FlightAware
03:33PM -36.6520 144.3779 152° Southeast 329 379 19,000  Level Aus ATC (RADAR)
03:33PM -36.6960 144.4090 152° Southeast 335 386 19,000  Level FlightAware
03:34PM -36.7338 144.4332 152° Southeast 333 383 19,000  Level Aus ATC (RADAR)
03:35PM -36.7990 144.4780 152° Southeast 335 386 19,000 -480 Level FlightAware
03:36PM -36.8960 144.5440 151° Southeast 349 402 18,100 -1,380 Descending FlightAware
03:37PM -36.9972 144.6131 151° Southeast 341 392 15,900 -1,860 Descending Aus ATC (RADAR)
03:37PM -37.0010 144.6170 151° Southeast 336 387 15,800 -1,800 Descending FlightAware
03:38PM -37.0925 144.6786 151° Southeast 327 376 13,800 -1,740 Descending Aus ATC (RADAR)
03:38PM -37.0970 144.6820 151° Southeast 316 364 13,800 -1,740 Level FlightAware
03:39PM -37.1699 144.7270 151° Southeast 304 350 12,100 -1,740 Descending Aus ATC (RADAR)
03:39PM -37.1870 144.7370 151° Southeast 303 349 11,800 -1,680 Descending FlightAware
03:40PM -37.2505 144.7780 151° Southeast 294 338 10,300 -1,680 Descending Aus ATC (RADAR)
03:41PM -37.2730 144.7930 151° Southeast 296 341 9,900 -1,620 Descending FlightAware
03:41PM -37.3280 144.8316 151° Southeast 289 333 8,600 -1,620 Descending Aus ATC (RADAR)
03:41PM -37.3240 144.8290 151° Southeast 293 337 8,700 -1,260 Climbing FlightAware
03:42PM -37.3580 144.8530 151° Southeast 285 328 8,000 -1,620 Descending FlightAware
03:42PM -37.3830 144.8710 150° Southeast 280 322 7,500 -1,440 Descending FlightAware
03:43PM -37.4190 144.8950 152° Southeast 271 312 6,700 -1,320 Descending FlightAware
03:43PM -37.4350 144.9060 151° Southeast 259 298 6,400 -1,620 Descending FlightAware
03:43PM -37.4530 144.9180 152° Southeast 255 293 5,900 -1,800 Descending FlightAware
03:44PM -37.4810 144.9370 152° Southeast 259 298 5,200 -1,560 Descending FlightAware
03:44PM -37.5070 144.9560 150° Southeast 248 285 4,600 -1,620 Descending FlightAware
03:44PM -37.5310 144.9726 150° Southeast 248 285 4,000 -840 Descending Aus ATC (RADAR)
03:45PM -37.5500 144.9860 150° Southeast 224 258 4,000 60 Level FlightAware
03:45PM -37.5760 145.0050 150° Southeast 206 237 4,100  Climbing FlightAware
03:46PM -37.5900 145.0140 153° Southeast 206 237 4,000 -600 Descending FlightAware
03:46PM -37.6120 145.0290 152° Southeast 219 252 3,700 -780 Descending FlightAware
03:46PM -37.6414 145.0499 152° Southeast 221 254 3,300 -840 Descending Aus ATC (RADAR)
03:46PM -37.6400 145.0480 152° Southeast 222 255 3,300 -720 Level FlightAware
03:47PM -37.6640 145.0620 155° Southeast 213 245 3,000 -360 Descending FlightAware
03:47PM -37.6920 145.0580 186° South 193 222 3,000  Level FlightAware
03:48PM -37.7060 145.0540 193° South 191 220 3,000 -480 Level FlightAware
03:48PM -37.7250 145.0420 207° Southwest 195 224 2,700 -900 Descending FlightAware
03:49PM -37.7500 145.0260 207° Southwest 193 222 2,200 -720 Descending FlightAware
03:49PM -37.7580 145.0140 230° Southwest 169 194 2,200 -120 Level FlightAware
03:49PM -37.7710 144.9860 240° Southwest 131 151 2,100  Descending FlightAware
03:50PM -37.7760 144.9640 254° West 126 145 2,200 -180 Climbing FlightAware
03:51PM -37.7770 144.9340 268° West 124 143 1,900 -720 Descending FlightAware
03:51PM -37.7740 144.9110 279° West 128 147 1,400 -1,020 Descending FlightAware
03:52PM -37.7640 144.9030 328° Northwest 131 151 1,000 -900 Descending FlightAware
03:52PM -37.7590 144.9030 360° North 129 148 900 -840 Descending FlightAware
03:52PM -37.7380 144.9020 358° North 105 121 400 -720 Descending FlightAware
03:53PM -37.7310 144.9010 354° North 103 119 300 -420 Descending FlightAware